sensor_id;sensor_type;location;lat;lon;timestamp;P1;durP1;ratioP1;P2;durP2;ratioP2
7029;SDS011;3556;53.500;10.176;2022-12-28T00:00:54;8.50;;;4.70;;
7029;SDS011;3556;53.500;10.176;2022-12-28T00:03:20;5.93;;;5.10;;
7029;SDS011;3556;53.500;10.176;2022-12-28T00:05:45;10.67;;;4.40;;
7029;SDS011;3556;53.500;10.176;2022-12-28T00:08:11;7.33;;;3.70;;
7029;SDS011;3556;53.500;10.176;2022-12-28T00:10:37;5.70;;;3.97;;
7029;SDS011;3556;53.500;10.176;2022-12-28T00:13:02;7.33;;;3.43;;
7029;SDS011;3556;53.500;10.176;2022-12-28T00:15:28;8.63;;;3.80;;
7029;SDS011;3556;53.500;10.176;2022-12-28T00:17:55;3.60;;;3.30;;
7029;SDS011;3556;53.500;10.176;2022-12-28T00:20:21;9.03;;;3.10;;
7029;SDS011;3556;53.500;10.176;2022-12-28T00:22:47;4.67;;;3.50;;
7029;SDS011;3556;53.500;10.176;2022-12-28T00:25:12;5.27;;;3.37;;
7029;SDS011;3556;53.500;10.176;2022-12-28T00:27:38;9.30;;;4.10;;
7029;SDS011;3556;53.500;10.176;2022-12-28T00:30:03;9.23;;;3.63;;
7029;SDS011;3556;53.500;10.176;2022-12-28T00:32:29;2.80;;;2.60;;
7029;SDS011;3556;53.500;10.176;2022-12-28T00:34:55;10.77;;;3.27;;
7029;SDS011;3556;53.500;10.176;2022-12-28T00:37:20;4.33;;;3.23;;
7029;SDS011;3556;53.500;10.176;2022-12-28T00:39:46;5.23;;;2.73;;
7029;SDS011;3556;53.500;10.176;2022-12-28T00:42:12;8.50;;;2.83;;
7029;SDS011;3556;53.500;10.176;2022-12-28T00:44:37;3.03;;;2.40;;
7029;SDS011;3556;53.500;10.176;2022-12-28T00:47:03;3.00;;;2.77;;
7029;SDS011;3556;53.500;10.176;2022-12-28T00:49:29;6.30;;;2.60;;
7029;SDS011;3556;53.500;10.176;2022-12-28T00:51:54;2.67;;;2.47;;
7029;SDS011;3556;53.500;10.176;2022-12-28T00:54:20;4.37;;;2.57;;
7029;SDS011;3556;53.500;10.176;2022-12-28T00:56:45;3.23;;;2.50;;
7029;SDS011;3556;53.500;10.176;2022-12-28T00:59:11;3.07;;;2.60;;
7029;SDS011;3556;53.500;10.176;2022-12-28T01:01:37;2.70;;;2.33;;
7029;SDS011;3556;53.500;10.176;2022-12-28T01:04:02;2.73;;;2.63;;
7029;SDS011;3556;53.500;10.176;2022-12-28T01:06:28;4.20;;;2.73;;
7029;SDS011;3556;53.500;10.176;2022-12-28T01:08:54;4.50;;;2.33;;
7029;SDS011;3556;53.500;10.176;2022-12-28T01:11:24;6.50;;;2.40;;
7029;SDS011;3556;53.500;10.176;2022-12-28T01:13:52;7.33;;;2.53;;
7029;SDS011;3556;53.500;10.176;2022-12-28T01:16:30;2.30;;;2.20;;
7029;SDS011;3556;53.500;10.176;2022-12-28T01:18:59;2.37;;;2.23;;
7029;SDS011;3556;53.500;10.176;2022-12-28T01:21:27;4.20;;;2.63;;
7029;SDS011;3556;53.500;10.176;2022-12-28T01:23:54;3.43;;;2.07;;
7029;SDS011;3556;53.500;10.176;2022-12-28T01:26:22;7.13;;;2.77;;
7029;SDS011;3556;53.500;10.176;2022-12-28T01:28:48;4.37;;;2.40;;
7029;SDS011;3556;53.500;10.176;2022-12-28T01:31:15;6.80;;;3.00;;
7029;SDS011;3556;53.500;10.176;2022-12-28T01:33:42;2.47;;;2.27;;
7029;SDS011;3556;53.500;10.176;2022-12-28T01:36:10;2.50;;;1.87;;
7029;SDS011;3556;53.500;10.176;2022-12-28T01:38:41;4.83;;;2.13;;
7029;SDS011;3556;53.500;10.176;2022-12-28T01:41:07;4.00;;;1.90;;
7029;SDS011;3556;53.500;10.176;2022-12-28T01:43:41;6.43;;;2.17;;
7029;SDS011;3556;53.500;10.176;2022-12-28T01:46:09;3.00;;;1.80;;
7029;SDS011;3556;53.500;10.176;2022-12-28T01:48:41;4.80;;;2.30;;
7029;SDS011;3556;53.500;10.176;2022-12-28T01:51:11;2.97;;;1.93;;
7029;SDS011;3556;53.500;10.176;2022-12-28T01:53:37;5.63;;;2.23;;
7029;SDS011;3556;53.500;10.176;2022-12-28T01:56:03;2.40;;;1.73;;
7029;SDS011;3556;53.500;10.176;2022-12-28T01:58:29;8.47;;;1.97;;
7029;SDS011;3556;53.500;10.176;2022-12-28T02:00:56;4.57;;;2.00;;
7029;SDS011;3556;53.500;10.176;2022-12-28T02:03:23;11.30;;;2.10;;
7029;SDS011;3556;53.500;10.176;2022-12-28T02:05:51;4.77;;;1.90;;
7029;SDS011;3556;53.500;10.176;2022-12-28T02:08:30;5.47;;;1.80;;
7029;SDS011;3556;53.500;10.176;2022-12-28T02:11:02;4.60;;;2.10;;
7029;SDS011;3556;53.500;10.176;2022-12-28T02:13:30;2.50;;;2.30;;
7029;SDS011;3556;53.500;10.176;2022-12-28T02:15:57;3.70;;;2.10;;
7029;SDS011;3556;53.500;10.176;2022-12-28T02:18:22;6.00;;;1.83;;
7029;SDS011;3556;53.500;10.176;2022-12-28T02:23:31;4.17;;;1.73;;
7029;SDS011;3556;53.500;10.176;2022-12-28T02:34:04;2.50;;;2.10;;
7029;SDS011;3556;53.500;10.176;2022-12-28T02:36:37;2.37;;;1.53;;
7029;SDS011;3556;53.500;10.176;2022-12-28T02:39:14;4.00;;;1.70;;
7029;SDS011;3556;53.500;10.176;2022-12-28T02:41:46;2.43;;;1.80;;
7029;SDS011;3556;53.500;10.176;2022-12-28T02:44:12;3.63;;;1.53;;
7029;SDS011;3556;53.500;10.176;2022-12-28T02:46:58;7.13;;;1.63;;
7029;SDS011;3556;53.500;10.176;2022-12-28T02:49:43;3.73;;;2.20;;
7029;SDS011;3556;53.500;10.176;2022-12-28T03:00:51;2.50;;;1.70;;
7029;SDS011;3556;53.500;10.176;2022-12-28T03:03:33;5.97;;;2.20;;
7029;SDS011;3556;53.500;10.176;2022-12-28T03:06:20;5.13;;;2.00;;
7029;SDS011;3556;53.500;10.176;2022-12-28T03:14:54;2.20;;;2.07;;
7029;SDS011;3556;53.500;10.176;2022-12-28T03:17:27;5.00;;;1.80;;
7029;SDS011;3556;53.500;10.176;2022-12-28T03:20:15;4.07;;;2.43;;
7029;SDS011;3556;53.500;10.176;2022-12-28T03:23:11;3.40;;;1.97;;
7029;SDS011;3556;53.500;10.176;2022-12-28T03:25:58;3.83;;;1.80;;
7029;SDS011;3556;53.500;10.176;2022-12-28T03:28:45;3.63;;;1.80;;
7029;SDS011;3556;53.500;10.176;2022-12-28T03:31:32;3.73;;;1.70;;
7029;SDS011;3556;53.500;10.176;2022-12-28T03:33:59;2.43;;;1.80;;
7029;SDS011;3556;53.500;10.176;2022-12-28T03:40:10;4.20;;;2.00;;
7029;SDS011;3556;53.500;10.176;2022-12-28T03:42:47;2.10;;;1.90;;
7029;SDS011;3556;53.500;10.176;2022-12-28T03:45:35;4.37;;;1.97;;
7029;SDS011;3556;53.500;10.176;2022-12-28T03:48:02;5.00;;;1.60;;
7029;SDS011;3556;53.500;10.176;2022-12-28T03:50:29;4.27;;;1.80;;
7029;SDS011;3556;53.500;10.176;2022-12-28T03:52:58;4.10;;;1.80;;
7029;SDS011;3556;53.500;10.176;2022-12-28T03:55:24;2.93;;;2.10;;
7029;SDS011;3556;53.500;10.176;2022-12-28T03:57:50;3.67;;;2.10;;
7029;SDS011;3556;53.500;10.176;2022-12-28T04:00:16;4.77;;;2.47;;
7029;SDS011;3556;53.500;10.176;2022-12-28T04:02:41;3.83;;;1.83;;
7029;SDS011;3556;53.500;10.176;2022-12-28T04:05:07;7.73;;;2.37;;
7029;SDS011;3556;53.500;10.176;2022-12-28T04:07:33;2.67;;;2.10;;
7029;SDS011;3556;53.500;10.176;2022-12-28T04:09:59;4.30;;;2.37;;
7029;SDS011;3556;53.500;10.176;2022-12-28T04:12:25;5.97;;;2.40;;
7029;SDS011;3556;53.500;10.176;2022-12-28T04:14:50;8.03;;;2.60;;
7029;SDS011;3556;53.500;10.176;2022-12-28T04:17:16;5.00;;;2.57;;
7029;SDS011;3556;53.500;10.176;2022-12-28T04:19:42;4.60;;;2.10;;
7029;SDS011;3556;53.500;10.176;2022-12-28T04:22:07;3.10;;;2.33;;
7029;SDS011;3556;53.500;10.176;2022-12-28T04:24:33;2.63;;;2.43;;
7029;SDS011;3556;53.500;10.176;2022-12-28T04:26:58;2.67;;;2.43;;
7029;SDS011;3556;53.500;10.176;2022-12-28T04:29:24;6.00;;;2.83;;
7029;SDS011;3556;53.500;10.176;2022-12-28T04:31:49;6.30;;;2.40;;
7029;SDS011;3556;53.500;10.176;2022-12-28T04:34:15;6.87;;;2.40;;
7029;SDS011;3556;53.500;10.176;2022-12-28T04:36:41;8.07;;;3.17;;
7029;SDS011;3556;53.500;10.176;2022-12-28T04:39:09;2.77;;;2.50;;
7029;SDS011;3556;53.500;10.176;2022-12-28T04:41:35;2.50;;;2.10;;
7029;SDS011;3556;53.500;10.176;2022-12-28T04:44:00;7.40;;;2.63;;
7029;SDS011;3556;53.500;10.176;2022-12-28T04:46:26;11.30;;;3.10;;
7029;SDS011;3556;53.500;10.176;2022-12-28T04:48:51;8.73;;;2.13;;
7029;SDS011;3556;53.500;10.176;2022-12-28T04:51:18;4.43;;;2.90;;
7029;SDS011;3556;53.500;10.176;2022-12-28T04:53:49;5.40;;;2.40;;
7029;SDS011;3556;53.500;10.176;2022-12-28T04:56:15;2.80;;;2.60;;
7029;SDS011;3556;53.500;10.176;2022-12-28T04:58:41;3.50;;;2.40;;
7029;SDS011;3556;53.500;10.176;2022-12-28T05:01:11;3.63;;;2.80;;
7029;SDS011;3556;53.500;10.176;2022-12-28T05:03:39;4.47;;;2.80;;
7029;SDS011;3556;53.500;10.176;2022-12-28T05:06:07;4.90;;;2.53;;
7029;SDS011;3556;53.500;10.176;2022-12-28T05:08:40;5.53;;;3.07;;
7029;SDS011;3556;53.500;10.176;2022-12-28T05:11:07;4.50;;;3.50;;
7029;SDS011;3556;53.500;10.176;2022-12-28T05:13:38;7.70;;;2.97;;
7029;SDS011;3556;53.500;10.176;2022-12-28T05:16:05;10.73;;;3.13;;
7029;SDS011;3556;53.500;10.176;2022-12-28T05:18:32;7.43;;;3.23;;
7029;SDS011;3556;53.500;10.176;2022-12-28T05:21:03;2.80;;;2.60;;
7029;SDS011;3556;53.500;10.176;2022-12-28T05:23:29;8.83;;;3.27;;
7029;SDS011;3556;53.500;10.176;2022-12-28T05:25:55;5.67;;;3.10;;
7029;SDS011;3556;53.500;10.176;2022-12-28T05:28:21;4.40;;;2.87;;
7029;SDS011;3556;53.500;10.176;2022-12-28T05:30:47;4.40;;;2.93;;
7029;SDS011;3556;53.500;10.176;2022-12-28T05:33:13;9.07;;;3.10;;
7029;SDS011;3556;53.500;10.176;2022-12-28T05:35:39;3.47;;;3.17;;
7029;SDS011;3556;53.500;10.176;2022-12-28T05:38:04;3.70;;;2.80;;
7029;SDS011;3556;53.500;10.176;2022-12-28T05:40:30;3.57;;;3.23;;
7029;SDS011;3556;53.500;10.176;2022-12-28T05:42:55;6.53;;;3.63;;
7029;SDS011;3556;53.500;10.176;2022-12-28T05:45:21;5.80;;;3.30;;
7029;SDS011;3556;53.500;10.176;2022-12-28T05:47:47;13.37;;;3.40;;
7029;SDS011;3556;53.500;10.176;2022-12-28T05:50:12;5.83;;;3.57;;
7029;SDS011;3556;53.500;10.176;2022-12-28T05:52:38;3.10;;;2.97;;
7029;SDS011;3556;53.500;10.176;2022-12-28T05:55:03;6.53;;;3.43;;
7029;SDS011;3556;53.500;10.176;2022-12-28T05:57:29;3.77;;;3.53;;
7029;SDS011;3556;53.500;10.176;2022-12-28T05:59:55;5.60;;;3.63;;
7029;SDS011;3556;53.500;10.176;2022-12-28T06:02:21;6.57;;;4.00;;
7029;SDS011;3556;53.500;10.176;2022-12-28T06:04:49;4.07;;;3.70;;
7029;SDS011;3556;53.500;10.176;2022-12-28T06:07:15;4.40;;;3.43;;
7029;SDS011;3556;53.500;10.176;2022-12-28T06:09:40;8.07;;;3.70;;
7029;SDS011;3556;53.500;10.176;2022-12-28T06:12:06;3.67;;;3.37;;
7029;SDS011;3556;53.500;10.176;2022-12-28T06:14:31;3.77;;;3.33;;
7029;SDS011;3556;53.500;10.176;2022-12-28T06:16:57;6.30;;;3.60;;
7029;SDS011;3556;53.500;10.176;2022-12-28T06:19:23;5.47;;;3.90;;
7029;SDS011;3556;53.500;10.176;2022-12-28T06:21:48;4.93;;;3.57;;
7029;SDS011;3556;53.500;10.176;2022-12-28T06:24:14;3.97;;;3.67;;
7029;SDS011;3556;53.500;10.176;2022-12-28T06:26:42;4.10;;;3.80;;
7029;SDS011;3556;53.500;10.176;2022-12-28T06:29:07;3.70;;;3.40;;
7029;SDS011;3556;53.500;10.176;2022-12-28T06:31:34;4.00;;;3.60;;
7029;SDS011;3556;53.500;10.176;2022-12-28T06:34:02;5.00;;;3.00;;
7029;SDS011;3556;53.500;10.176;2022-12-28T06:36:30;3.40;;;3.30;;
7029;SDS011;3556;53.500;10.176;2022-12-28T06:38:58;10.33;;;4.10;;
7029;SDS011;3556;53.500;10.176;2022-12-28T06:41:24;4.00;;;3.80;;
7029;SDS011;3556;53.500;10.176;2022-12-28T06:43:51;3.87;;;3.67;;
7029;SDS011;3556;53.500;10.176;2022-12-28T06:46:18;4.13;;;3.70;;
7029;SDS011;3556;53.500;10.176;2022-12-28T06:48:45;3.83;;;3.13;;
7029;SDS011;3556;53.500;10.176;2022-12-28T06:53:38;3.37;;;3.17;;
7029;SDS011;3556;53.500;10.176;2022-12-28T06:56:05;5.27;;;3.67;;
7029;SDS011;3556;53.500;10.176;2022-12-28T06:58:34;3.90;;;3.60;;
7029;SDS011;3556;53.500;10.176;2022-12-28T07:01:07;4.00;;;3.60;;
7029;SDS011;3556;53.500;10.176;2022-12-28T07:03:34;3.13;;;3.03;;
7029;SDS011;3556;53.500;10.176;2022-12-28T07:06:00;4.83;;;3.43;;
7029;SDS011;3556;53.500;10.176;2022-12-28T07:08:27;3.37;;;3.07;;
7029;SDS011;3556;53.500;10.176;2022-12-28T07:10:53;3.23;;;3.13;;
7029;SDS011;3556;53.500;10.176;2022-12-28T07:13:18;2.97;;;2.77;;
7029;SDS011;3556;53.500;10.176;2022-12-28T07:15:44;4.17;;;3.10;;
7029;SDS011;3556;53.500;10.176;2022-12-28T07:18:09;2.77;;;2.53;;
7029;SDS011;3556;53.500;10.176;2022-12-28T07:20:35;3.07;;;2.97;;
7029;SDS011;3556;53.500;10.176;2022-12-28T07:23:01;3.93;;;3.07;;
7029;SDS011;3556;53.500;10.176;2022-12-28T07:25:26;2.90;;;2.70;;
7029;SDS011;3556;53.500;10.176;2022-12-28T07:27:52;3.07;;;2.87;;
7029;SDS011;3556;53.500;10.176;2022-12-28T07:30:18;3.00;;;2.67;;
7029;SDS011;3556;53.500;10.176;2022-12-28T07:32:43;5.03;;;3.20;;
7029;SDS011;3556;53.500;10.176;2022-12-28T07:35:09;2.67;;;2.53;;
7029;SDS011;3556;53.500;10.176;2022-12-28T07:37:34;3.47;;;3.17;;
7029;SDS011;3556;53.500;10.176;2022-12-28T07:40:00;2.50;;;2.40;;
7029;SDS011;3556;53.500;10.176;2022-12-28T07:42:27;2.40;;;2.30;;
7029;SDS011;3556;53.500;10.176;2022-12-28T07:44:53;3.00;;;2.80;;
7029;SDS011;3556;53.500;10.176;2022-12-28T07:47:19;2.10;;;2.00;;
7029;SDS011;3556;53.500;10.176;2022-12-28T07:49:45;2.90;;;2.70;;
7029;SDS011;3556;53.500;10.176;2022-12-28T07:52:10;2.90;;;2.70;;
7029;SDS011;3556;53.500;10.176;2022-12-28T07:54:36;2.53;;;2.43;;
7029;SDS011;3556;53.500;10.176;2022-12-28T07:57:02;2.77;;;2.57;;
7029;SDS011;3556;53.500;10.176;2022-12-28T07:59:27;2.87;;;2.77;;
7029;SDS011;3556;53.500;10.176;2022-12-28T08:01:53;2.60;;;2.50;;
7029;SDS011;3556;53.500;10.176;2022-12-28T08:04:18;2.87;;;2.63;;
7029;SDS011;3556;53.500;10.176;2022-12-28T08:06:44;3.00;;;2.90;;
7029;SDS011;3556;53.500;10.176;2022-12-28T08:09:13;3.00;;;2.90;;
7029;SDS011;3556;53.500;10.176;2022-12-28T08:11:40;2.73;;;2.57;;
7029;SDS011;3556;53.500;10.176;2022-12-28T08:14:07;2.90;;;2.80;;
7029;SDS011;3556;53.500;10.176;2022-12-28T08:16:34;2.60;;;2.50;;
7029;SDS011;3556;53.500;10.176;2022-12-28T08:19:02;2.80;;;2.53;;
7029;SDS011;3556;53.500;10.176;2022-12-28T08:21:32;2.87;;;2.67;;
7029;SDS011;3556;53.500;10.176;2022-12-28T08:24:00;2.97;;;2.87;;
7029;SDS011;3556;53.500;10.176;2022-12-28T08:29:01;3.27;;;3.17;;
7029;SDS011;3556;53.500;10.176;2022-12-28T08:31:31;3.10;;;3.00;;
7029;SDS011;3556;53.500;10.176;2022-12-28T08:33:58;3.30;;;3.20;;
7029;SDS011;3556;53.500;10.176;2022-12-28T08:36:24;3.37;;;3.27;;
7029;SDS011;3556;53.500;10.176;2022-12-28T08:38:50;3.07;;;2.97;;
7029;SDS011;3556;53.500;10.176;2022-12-28T08:41:17;3.40;;;3.30;;
7029;SDS011;3556;53.500;10.176;2022-12-28T08:43:45;4.13;;;3.93;;
7029;SDS011;3556;53.500;10.176;2022-12-28T08:46:12;3.23;;;3.13;;
7029;SDS011;3556;53.500;10.176;2022-12-28T08:48:40;4.00;;;3.80;;
7029;SDS011;3556;53.500;10.176;2022-12-28T08:51:10;3.87;;;3.77;;
7029;SDS011;3556;53.500;10.176;2022-12-28T08:53:37;4.17;;;4.07;;
7029;SDS011;3556;53.500;10.176;2022-12-28T08:56:11;4.03;;;3.93;;
7029;SDS011;3556;53.500;10.176;2022-12-28T08:58:37;4.10;;;4.00;;
7029;SDS011;3556;53.500;10.176;2022-12-28T09:01:17;4.70;;;4.40;;
7029;SDS011;3556;53.500;10.176;2022-12-28T09:03:46;4.50;;;4.40;;
7029;SDS011;3556;53.500;10.176;2022-12-28T09:06:16;4.67;;;4.50;;
7029;SDS011;3556;53.500;10.176;2022-12-28T09:08:53;6.00;;;5.33;;
7029;SDS011;3556;53.500;10.176;2022-12-28T09:11:20;5.83;;;5.63;;
7029;SDS011;3556;53.500;10.176;2022-12-28T09:13:46;5.67;;;5.47;;
7029;SDS011;3556;53.500;10.176;2022-12-28T09:16:14;10.50;;;9.40;;
7029;SDS011;3556;53.500;10.176;2022-12-28T09:18:41;7.07;;;6.57;;
7029;SDS011;3556;53.500;10.176;2022-12-28T09:23:33;7.93;;;7.43;;
7029;SDS011;3556;53.500;10.176;2022-12-28T09:26:03;8.63;;;7.93;;
7029;SDS011;3556;53.500;10.176;2022-12-28T09:28:29;8.10;;;7.60;;
7029;SDS011;3556;53.500;10.176;2022-12-28T09:30:54;7.30;;;6.87;;
7029;SDS011;3556;53.500;10.176;2022-12-28T09:33:20;8.50;;;7.90;;
7029;SDS011;3556;53.500;10.176;2022-12-28T09:36:05;8.40;;;7.70;;
7029;SDS011;3556;53.500;10.176;2022-12-28T09:38:30;8.10;;;7.60;;
7029;SDS011;3556;53.500;10.176;2022-12-28T09:40:56;7.80;;;7.30;;
7029;SDS011;3556;53.500;10.176;2022-12-28T09:43:22;8.37;;;7.77;;
7029;SDS011;3556;53.500;10.176;2022-12-28T09:45:50;8.03;;;7.50;;
7029;SDS011;3556;53.500;10.176;2022-12-28T09:48:18;8.93;;;7.37;;
7029;SDS011;3556;53.500;10.176;2022-12-28T09:50:47;8.20;;;7.50;;
7029;SDS011;3556;53.500;10.176;2022-12-28T09:55:40;6.97;;;6.57;;
7029;SDS011;3556;53.500;10.176;2022-12-28T09:58:13;7.40;;;7.00;;
7029;SDS011;3556;53.500;10.176;2022-12-28T10:00:41;7.17;;;6.67;;
7029;SDS011;3556;53.500;10.176;2022-12-28T10:03:26;8.03;;;7.43;;
7029;SDS011;3556;53.500;10.176;2022-12-28T10:06:08;6.30;;;6.00;;
7029;SDS011;3556;53.500;10.176;2022-12-28T10:08:39;6.10;;;5.87;;
7029;SDS011;3556;53.500;10.176;2022-12-28T10:11:11;6.70;;;6.40;;
7029;SDS011;3556;53.500;10.176;2022-12-28T10:13:42;6.10;;;5.90;;
7029;SDS011;3556;53.500;10.176;2022-12-28T10:16:14;6.03;;;5.73;;
7029;SDS011;3556;53.500;10.176;2022-12-28T10:18:42;6.27;;;6.00;;
7029;SDS011;3556;53.500;10.176;2022-12-28T10:21:08;6.50;;;6.20;;
7029;SDS011;3556;53.500;10.176;2022-12-28T10:23:34;6.33;;;5.93;;
7029;SDS011;3556;53.500;10.176;2022-12-28T10:26:00;6.50;;;6.30;;
7029;SDS011;3556;53.500;10.176;2022-12-28T10:29:02;7.30;;;6.70;;
7029;SDS011;3556;53.500;10.176;2022-12-28T10:31:31;6.07;;;5.77;;
7029;SDS011;3556;53.500;10.176;2022-12-28T10:34:01;5.37;;;5.13;;
7029;SDS011;3556;53.500;10.176;2022-12-28T10:36:38;7.00;;;6.70;;
7029;SDS011;3556;53.500;10.176;2022-12-28T10:39:03;6.27;;;5.83;;
7029;SDS011;3556;53.500;10.176;2022-12-28T10:41:32;7.17;;;6.77;;
7029;SDS011;3556;53.500;10.176;2022-12-28T10:44:04;6.83;;;6.33;;
7029;SDS011;3556;53.500;10.176;2022-12-28T10:46:50;7.23;;;6.63;;
7029;SDS011;3556;53.500;10.176;2022-12-28T10:49:25;8.00;;;7.23;;
7029;SDS011;3556;53.500;10.176;2022-12-28T10:54:56;7.10;;;6.70;;
7029;SDS011;3556;53.500;10.176;2022-12-28T10:59:50;7.43;;;7.07;;
7029;SDS011;3556;53.500;10.176;2022-12-28T11:02:23;7.70;;;7.17;;
7029;SDS011;3556;53.500;10.176;2022-12-28T11:04:53;6.23;;;5.93;;
7029;SDS011;3556;53.500;10.176;2022-12-28T11:07:36;7.33;;;6.73;;
7029;SDS011;3556;53.500;10.176;2022-12-28T11:10:13;6.20;;;5.90;;
7029;SDS011;3556;53.500;10.176;2022-12-28T11:12:40;6.40;;;6.10;;
7029;SDS011;3556;53.500;10.176;2022-12-28T11:15:16;6.37;;;5.97;;
7029;SDS011;3556;53.500;10.176;2022-12-28T11:17:43;6.17;;;5.90;;
7029;SDS011;3556;53.500;10.176;2022-12-28T11:20:18;6.50;;;6.20;;
7029;SDS011;3556;53.500;10.176;2022-12-28T11:22:48;5.90;;;5.70;;
7029;SDS011;3556;53.500;10.176;2022-12-28T11:25:15;5.40;;;5.20;;
7029;SDS011;3556;53.500;10.176;2022-12-28T11:27:43;5.17;;;5.07;;
7029;SDS011;3556;53.500;10.176;2022-12-28T11:30:15;5.90;;;5.70;;
7029;SDS011;3556;53.500;10.176;2022-12-28T11:32:47;4.50;;;4.40;;
7029;SDS011;3556;53.500;10.176;2022-12-28T11:35:17;4.90;;;4.80;;
7029;SDS011;3556;53.500;10.176;2022-12-28T11:37:52;6.00;;;5.57;;
7029;SDS011;3556;53.500;10.176;2022-12-28T11:45:54;4.67;;;4.57;;
7029;SDS011;3556;53.500;10.176;2022-12-28T11:51:13;4.53;;;4.43;;
7029;SDS011;3556;53.500;10.176;2022-12-28T11:56:19;4.53;;;4.43;;
7029;SDS011;3556;53.500;10.176;2022-12-28T12:11:48;4.30;;;4.20;;
7029;SDS011;3556;53.500;10.176;2022-12-28T12:17:13;3.90;;;3.80;;
7029;SDS011;3556;53.500;10.176;2022-12-28T12:19:48;3.80;;;3.70;;
7029;SDS011;3556;53.500;10.176;2022-12-28T12:22:28;4.07;;;3.77;;
7029;SDS011;3556;53.500;10.176;2022-12-28T12:25:00;5.30;;;3.40;;
7029;SDS011;3556;53.500;10.176;2022-12-28T12:27:40;3.60;;;3.50;;
7029;SDS011;3556;53.500;10.176;2022-12-28T12:32:46;3.50;;;3.40;;
7029;SDS011;3556;53.500;10.176;2022-12-28T12:35:26;3.70;;;3.60;;
7029;SDS011;3556;53.500;10.176;2022-12-28T12:43:07;4.13;;;4.03;;
7029;SDS011;3556;53.500;10.176;2022-12-28T12:51:12;4.90;;;4.80;;
7029;SDS011;3556;53.500;10.176;2022-12-28T12:56:45;5.40;;;5.10;;
7029;SDS011;3556;53.500;10.176;2022-12-28T13:04:52;5.63;;;5.50;;
7029;SDS011;3556;53.500;10.176;2022-12-28T13:07:19;5.23;;;5.13;;
7029;SDS011;3556;53.500;10.176;2022-12-28T13:09:48;7.47;;;7.07;;
7029;SDS011;3556;53.500;10.176;2022-12-28T13:12:17;6.50;;;6.20;;
7029;SDS011;3556;53.500;10.176;2022-12-28T13:14:44;9.30;;;8.40;;
7029;SDS011;3556;53.500;10.176;2022-12-28T13:17:14;7.33;;;6.80;;
7029;SDS011;3556;53.500;10.176;2022-12-28T13:19:43;6.57;;;6.30;;
7029;SDS011;3556;53.500;10.176;2022-12-28T13:22:31;7.30;;;6.90;;
7029;SDS011;3556;53.500;10.176;2022-12-28T13:24:57;11.83;;;10.73;;
7029;SDS011;3556;53.500;10.176;2022-12-28T13:27:24;10.60;;;8.17;;
7029;SDS011;3556;53.500;10.176;2022-12-28T13:30:02;35.50;;;18.20;;
7029;SDS011;3556;53.500;10.176;2022-12-28T13:32:29;20.20;;;13.57;;
7029;SDS011;3556;53.500;10.176;2022-12-28T13:34:58;39.50;;;18.50;;
7029;SDS011;3556;53.500;10.176;2022-12-28T13:37:24;19.73;;;11.77;;
7029;SDS011;3556;53.500;10.176;2022-12-28T13:39:50;71.90;;;24.80;;
7029;SDS011;3556;53.500;10.176;2022-12-28T13:42:40;44.27;;;20.70;;
7029;SDS011;3556;53.500;10.176;2022-12-28T13:45:16;33.93;;;16.90;;
7029;SDS011;3556;53.500;10.176;2022-12-28T13:47:45;45.57;;;20.57;;
7029;SDS011;3556;53.500;10.176;2022-12-28T13:52:59;10.93;;;9.93;;
7029;SDS011;3556;53.500;10.176;2022-12-28T13:55:33;8.37;;;7.67;;
7029;SDS011;3556;53.500;10.176;2022-12-28T13:58:08;8.20;;;7.60;;
7029;SDS011;3556;53.500;10.176;2022-12-28T14:00:42;8.03;;;7.53;;
7029;SDS011;3556;53.500;10.176;2022-12-28T14:03:11;7.60;;;7.10;;
7029;SDS011;3556;53.500;10.176;2022-12-28T14:05:40;7.57;;;6.97;;
7029;SDS011;3556;53.500;10.176;2022-12-28T14:08:08;7.73;;;7.23;;
7029;SDS011;3556;53.500;10.176;2022-12-28T14:10:34;10.40;;;9.60;;
7029;SDS011;3556;53.500;10.176;2022-12-28T14:13:01;14.70;;;11.57;;
7029;SDS011;3556;53.500;10.176;2022-12-28T14:15:28;12.97;;;11.60;;
7029;SDS011;3556;53.500;10.176;2022-12-28T14:17:55;14.93;;;13.27;;
7029;SDS011;3556;53.500;10.176;2022-12-28T14:20:21;21.27;;;15.50;;
7029;SDS011;3556;53.500;10.176;2022-12-28T14:22:47;43.07;;;21.87;;
7029;SDS011;3556;53.500;10.176;2022-12-28T14:25:13;37.90;;;18.87;;
7029;SDS011;3556;53.500;10.176;2022-12-28T14:27:42;53.53;;;22.93;;
7029;SDS011;3556;53.500;10.176;2022-12-28T14:30:24;32.30;;;17.07;;
7029;SDS011;3556;53.500;10.176;2022-12-28T14:33:13;45.00;;;20.10;;
7029;SDS011;3556;53.500;10.176;2022-12-28T14:35:47;13.07;;;9.57;;
7029;SDS011;3556;53.500;10.176;2022-12-28T14:38:17;32.80;;;19.10;;
7029;SDS011;3556;53.500;10.176;2022-12-28T14:40:51;76.83;;;39.30;;
7029;SDS011;3556;53.500;10.176;2022-12-28T14:43:21;29.40;;;17.73;;
7029;SDS011;3556;53.500;10.176;2022-12-28T14:46:14;13.40;;;10.40;;
7029;SDS011;3556;53.500;10.176;2022-12-28T14:48:41;7.83;;;7.17;;
7029;SDS011;3556;53.500;10.176;2022-12-28T14:53:42;15.87;;;12.37;;
7029;SDS011;3556;53.500;10.176;2022-12-28T14:56:10;14.07;;;12.30;;
7029;SDS011;3556;53.500;10.176;2022-12-28T15:01:16;6.07;;;5.77;;
7029;SDS011;3556;53.500;10.176;2022-12-28T15:06:17;7.33;;;6.67;;
7029;SDS011;3556;53.500;10.176;2022-12-28T15:08:50;50.80;;;20.37;;
7029;SDS011;3556;53.500;10.176;2022-12-28T15:11:18;90.90;;;32.80;;
7029;SDS011;3556;53.500;10.176;2022-12-28T15:13:45;28.17;;;14.47;;
7029;SDS011;3556;53.500;10.176;2022-12-28T15:16:12;16.70;;;12.00;;
7029;SDS011;3556;53.500;10.176;2022-12-28T15:18:39;22.53;;;13.83;;
7029;SDS011;3556;53.500;10.176;2022-12-28T15:21:12;31.73;;;17.27;;
7029;SDS011;3556;53.500;10.176;2022-12-28T15:23:39;13.17;;;10.40;;
7029;SDS011;3556;53.500;10.176;2022-12-28T15:26:08;21.20;;;15.33;;
7029;SDS011;3556;53.500;10.176;2022-12-28T15:28:35;26.97;;;17.60;;
7029;SDS011;3556;53.500;10.176;2022-12-28T15:31:05;12.80;;;10.20;;
7029;SDS011;3556;53.500;10.176;2022-12-28T15:33:39;53.90;;;24.20;;
7029;SDS011;3556;53.500;10.176;2022-12-28T15:36:06;21.43;;;14.87;;
7029;SDS011;3556;53.500;10.176;2022-12-28T15:38:34;5.73;;;5.53;;
7029;SDS011;3556;53.500;10.176;2022-12-28T15:41:00;4.20;;;4.10;;
7029;SDS011;3556;53.500;10.176;2022-12-28T15:43:26;3.57;;;3.47;;
7029;SDS011;3556;53.500;10.176;2022-12-28T15:45:55;3.77;;;3.67;;
7029;SDS011;3556;53.500;10.176;2022-12-28T15:48:28;3.60;;;3.50;;
7029;SDS011;3556;53.500;10.176;2022-12-28T15:50:55;3.90;;;3.80;;
7029;SDS011;3556;53.500;10.176;2022-12-28T15:53:20;3.43;;;3.33;;
7029;SDS011;3556;53.500;10.176;2022-12-28T15:55:56;3.53;;;3.23;;
7029;SDS011;3556;53.500;10.176;2022-12-28T15:58:24;3.63;;;3.53;;
7029;SDS011;3556;53.500;10.176;2022-12-28T16:00:50;3.87;;;3.77;;
7029;SDS011;3556;53.500;10.176;2022-12-28T16:03:15;3.53;;;3.43;;
7029;SDS011;3556;53.500;10.176;2022-12-28T16:05:41;3.20;;;3.10;;
7029;SDS011;3556;53.500;10.176;2022-12-28T16:08:06;3.80;;;3.70;;
7029;SDS011;3556;53.500;10.176;2022-12-28T16:10:32;6.43;;;3.70;;
7029;SDS011;3556;53.500;10.176;2022-12-28T16:12:58;4.13;;;4.03;;
7029;SDS011;3556;53.500;10.176;2022-12-28T16:15:23;4.43;;;4.33;;
7029;SDS011;3556;53.500;10.176;2022-12-28T16:17:49;3.90;;;3.70;;
7029;SDS011;3556;53.500;10.176;2022-12-28T16:20:16;4.10;;;4.00;;
7029;SDS011;3556;53.500;10.176;2022-12-28T16:22:42;4.40;;;4.20;;
7029;SDS011;3556;53.500;10.176;2022-12-28T16:25:08;4.17;;;4.07;;
7029;SDS011;3556;53.500;10.176;2022-12-28T16:27:34;4.17;;;3.97;;
7029;SDS011;3556;53.500;10.176;2022-12-28T16:29:59;4.53;;;4.33;;
7029;SDS011;3556;53.500;10.176;2022-12-28T16:32:25;4.57;;;4.47;;
7029;SDS011;3556;53.500;10.176;2022-12-28T16:34:52;4.30;;;4.20;;
7029;SDS011;3556;53.500;10.176;2022-12-28T16:37:19;4.73;;;4.47;;
7029;SDS011;3556;53.500;10.176;2022-12-28T16:39:44;5.03;;;4.73;;
7029;SDS011;3556;53.500;10.176;2022-12-28T16:42:10;4.93;;;4.70;;
7029;SDS011;3556;53.500;10.176;2022-12-28T16:44:35;5.20;;;5.00;;
7029;SDS011;3556;53.500;10.176;2022-12-28T16:47:01;4.90;;;4.70;;
7029;SDS011;3556;53.500;10.176;2022-12-28T16:49:27;4.53;;;4.43;;
7029;SDS011;3556;53.500;10.176;2022-12-28T16:51:53;5.57;;;5.27;;